Time;durP1;ratioP1;P1;durP2;ratioP2;P2;SDS_P1;SDS_P2;PMS_P1;PMS_P2;Temp;Humidity;BMP_temperature;BMP_pressure;BME280_temperature;BME280_humidity;BME280_pressure;Samples;Min_cycle;Max_cycle;Signal;HPM_P1;HPM_P2
2020/12/18 00:00:09;;;;;;;4.22;1.90;;;11.90;84.60;;;;;;5004964;28;20037;-78
2020/12/18 00:02:35;;;;;;;7.05;2.67;;;11.90;84.60;;;;;;5006647;28;20060;-79
2020/12/18 00:05:01;;;;;;;5.85;2.17;;;11.90;84.60;;;;;;5005185;28;20033;-79
2020/12/18 00:07:27;;;;;;;7.00;1.75;;;11.90;84.60;;;;;;5006658;28;20034;-79
2020/12/18 00:09:53;;;;;;;4.32;1.88;;;11.90;84.60;;;;;;5004894;28;20516;-79
2020/12/18 00:12:20;;;;;;;5.97;1.70;;;11.90;84.50;;;;;;5006503;28;20038;-80
2020/12/18 00:14:46;;;;;;;4.47;1.90;;;11.90;84.50;;;;;;5006373;28;20066;-78
2020/12/18 00:17:12;;;;;;;7.35;2.15;;;11.90;85.00;;;;;;5006640;28;20034;-80
2020/12/18 00:19:38;;;;;;;3.13;1.67;;;11.90;84.50;;;;;;5006410;28;20034;-80
2020/12/18 00:22:04;;;;;;;3.95;1.70;;;12.00;84.70;;;;;;5006079;28;20030;-77
2020/12/18 00:24:30;;;;;;;6.68;1.98;;;12.00;84.70;;;;;;5004891;28;20061;-78
2020/12/18 00:26:56;;;;;;;2.70;2.00;;;12.00;84.60;;;;;;4988973;28;20033;-78
2020/12/18 00:29:22;;;;;;;4.43;1.85;;;12.00;84.60;;;;;;5007119;28;20068;-78
2020/12/18 00:31:48;;;;;;;3.38;1.73;;;12.00;84.60;;;;;;5010169;28;20051;-77
2020/12/18 00:34:14;;;;;;;4.57;1.80;;;12.00;84.60;;;;;;5010572;28;20041;-77
2020/12/18 00:36:40;;;;;;;3.83;1.77;;;12.00;84.60;;;;;;5010164;28;20077;-78
2020/12/18 00:39:07;;;;;;;4.88;1.98;;;12.00;84.60;;;;;;5008950;28;20131;-77
2020/12/18 00:41:33;;;;;;;4.30;1.75;;;12.00;84.60;;;;;;5009048;28;20040;-77
2020/12/18 00:44:00;;;;;;;5.28;1.80;;;12.00;84.50;;;;;;4992638;28;20295;-78
2020/12/18 00:46:26;;;;;;;3.42;1.70;;;12.00;84.50;;;;;;5008863;28;20044;-78
2020/12/18 00:48:51;;;;;;;2.65;1.60;;;12.00;84.50;;;;;;5008735;28;20050;-78
2020/12/18 00:51:18;;;;;;;3.42;1.63;;;12.00;85.10;;;;;;5008456;28;20477;-78
2020/12/18 00:53:46;;;;;;;2.33;1.67;;;12.00;84.50;;;;;;4992603;28;20685;-78
2020/12/18 00:56:13;;;;;;;4.03;1.95;;;12.00;84.50;;;;;;4992280;28;20052;-78
2020/12/18 00:58:43;;;;;;;4.53;1.92;;;12.10;84.70;;;;;;5007810;28;20081;-78
2020/12/18 01:01:11;;;;;;;5.50;1.92;;;12.00;84.50;;;;;;5008916;28;20121;-78
2020/12/18 01:03:38;;;;;;;3.05;1.67;;;12.00;84.50;;;;;;5008148;28;20026;-78
2020/12/18 01:06:09;;;;;;;3.75;1.90;;;12.10;84.70;;;;;;4992384;28;20057;-77
2020/12/18 01:08:37;;;;;;;3.07;1.87;;;12.10;84.70;;;;;;5008193;28;20026;-79
2020/12/18 01:11:04;;;;;;;4.10;2.20;;;12.10;84.70;;;;;;5009862;28;20040;-79
2020/12/18 01:13:31;;;;;;;3.45;1.45;;;12.00;84.50;;;;;;4992095;28;20065;-79
2020/12/18 01:15:58;;;;;;;2.85;1.50;;;12.10;84.70;;;;;;4991691;28;20034;-80
2020/12/18 01:18:30;;;;;;;2.95;1.83;;;12.10;84.70;;;;;;5008967;28;20099;-79
2020/12/18 01:21:00;;;;;;;5.75;2.00;;;12.10;84.70;;;;;;5008794;28;20034;-80
2020/12/18 01:23:29;;;;;;;7.68;1.75;;;12.10;84.70;;;;;;4992871;28;20139;-81
2020/12/18 01:26:00;;;;;;;2.83;1.85;;;12.00;84.50;;;;;;5008672;28;20497;-81
2020/12/18 01:28:26;;;;;;;1.88;1.40;;;12.10;84.60;;;;;;5008190;28;20477;-81
2020/12/18 01:30:52;;;;;;;4.13;2.22;;;12.10;84.60;;;;;;5008073;28;20061;-80
2020/12/18 01:33:18;;;;;;;5.63;1.80;;;12.10;84.60;;;;;;5010006;28;20064;-80
2020/12/18 01:35:44;;;;;;;3.40;2.03;;;12.10;84.60;;;;;;5008528;28;20045;-80
2020/12/18 01:38:11;;;;;;;3.22;2.03;;;12.10;84.60;;;;;;5007618;28;20131;-81
2020/12/18 01:40:40;;;;;;;4.25;1.70;;;12.10;84.60;;;;;;5006981;28;20038;-81
2020/12/18 01:43:10;;;;;;;3.13;1.48;;;12.20;84.70;;;;;;5007901;28;20101;-80
2020/12/18 01:45:39;;;;;;;3.55;2.17;;;12.20;84.70;;;;;;5007789;28;20037;-79
2020/12/18 01:48:12;;;;;;;3.15;1.83;;;12.20;84.70;;;;;;5007239;28;20053;-78
2020/12/18 01:50:56;;;;;;;3.60;1.90;;;12.10;84.60;;;;;;5009141;28;20386;-78
2020/12/18 01:53:29;;;;;;;6.28;1.67;;;12.10;84.50;;;;;;4991916;28;20415;-78
2020/12/18 01:56:08;;;;;;;2.72;1.85;;;12.10;84.50;;;;;;4992967;28;20065;-79
2020/12/18 01:58:41;;;;;;;4.10;1.92;;;12.10;84.50;;;;;;4991247;28;20121;-78
2020/12/18 02:01:13;;;;;;;2.80;1.52;;;12.20;84.70;;;;;;5007217;28;20037;-78
2020/12/18 02:03:55;;;;;;;3.00;1.67;;;12.20;84.70;;;;;;4993086;28;20033;-78
2020/12/18 02:06:36;;;;;;;5.53;1.83;;;12.20;84.70;;;;;;5006983;28;20124;-77
2020/12/18 02:09:13;;;;;;;2.17;1.60;;;12.20;85.20;;;;;;5007528;28;20037;-78
2020/12/18 02:11:52;;;;;;;2.63;1.70;;;12.20;84.70;;;;;;5006918;28;20029;-78
2020/12/18 02:14:20;;;;;;;5.05;2.08;;;12.20;84.70;;;;;;4990849;28;20129;-78
2020/12/18 02:16:52;;;;;;;2.65;1.70;;;12.20;84.70;;;;;;4990889;28;20359;-79
2020/12/18 02:19:30;;;;;;;2.03;1.50;;;12.10;84.50;;;;;;4991627;28;20030;-78
2020/12/18 02:21:56;;;;;;;3.20;1.83;;;12.20;84.70;;;;;;5006661;28;20026;-78
2020/12/18 02:24:26;;;;;;;3.67;1.80;;;12.20;84.70;;;;;;4990378;28;20084;-77
2020/12/18 02:26:54;;;;;;;3.95;2.00;;;12.20;84.70;;;;;;5006840;28;20062;-78
2020/12/18 02:29:21;;;;;;;2.63;1.80;;;12.20;84.70;;;;;;5006419;28;20030;-78
2020/12/18 02:31:55;;;;;;;4.00;1.95;;;12.20;84.60;;;;;;5006561;28;20026;-78
2020/12/18 02:34:50;;;;;;;1.85;1.40;;;12.20;84.60;;;;;;4994825;28;20498;-77
2020/12/18 02:37:25;;;;;;;3.22;2.15;;;12.20;84.60;;;;;;4989981;28;20042;-78
2020/12/18 02:39:59;;;;;;;2.22;1.50;;;12.20;84.60;;;;;;5006135;28;20457;-77
2020/12/18 02:42:45;;;;;;;3.22;1.58;;;12.20;84.60;;;;;;5007935;28;20046;-78
2020/12/18 02:45:11;;;;;;;4.35;1.58;;;12.20;84.60;;;;;;4989668;28;20033;-78
2020/12/18 02:47:40;;;;;;;3.88;1.75;;;12.20;84.60;;;;;;5010633;28;20042;-78
2020/12/18 02:50:15;;;;;;;4.63;2.13;;;12.20;84.60;;;;;;5009290;28;20057;-79
2020/12/18 02:52:50;;;;;;;5.68;1.50;;;12.30;84.80;;;;;;5009414;28;20032;-78
2020/12/18 02:55:35;;;;;;;3.85;1.73;;;12.30;84.80;;;;;;5009994;28;20172;-79
2020/12/18 02:58:40;;;;;;;4.10;1.50;;;12.20;84.60;;;;;;4949892;29;20039;-80
2020/12/18 03:01:07;;;;;;;3.53;1.50;;;12.30;84.70;;;;;;4949046;28;20035;-78
2020/12/18 03:03:33;;;;;;;3.63;1.33;;;12.30;84.70;;;;;;4977537;28;20038;-79
2020/12/18 03:06:21;;;;;;;2.67;1.50;;;12.30;84.70;;;;;;5009088;28;20147;-79
2020/12/18 03:08:51;;;;;;;3.90;1.58;;;12.30;84.70;;;;;;5010120;28;20153;-79
2020/12/18 03:11:17;;;;;;;3.53;1.52;;;12.30;84.70;;;;;;5009827;28;20452;-80
2020/12/18 03:13:45;;;;;;;2.75;1.50;;;12.30;84.70;;;;;;5008992;28;20080;-78
2020/12/18 03:16:12;;;;;;;3.92;1.40;;;12.40;84.90;;;;;;5009923;28;20525;-78
2020/12/18 03:18:58;;;;;;;3.10;2.13;;;12.40;84.90;;;;;;5002425;28;20030;-78
2020/12/18 03:21:25;;;;;;;2.55;1.60;;;12.40;84.90;;;;;;5008570;28;20037;-78
2020/12/18 03:24:29;;;;;;;2.85;1.38;;;12.40;84.90;;;;;;4948978;29;20027;-78
2020/12/18 03:27:21;;;;;;;1.73;1.30;;;12.40;84.80;;;;;;4948318;28;20047;-77
2020/12/18 03:29:57;;;;;;;1.65;1.40;;;12.40;84.80;;;;;;4990746;28;20489;-78
2020/12/18 03:32:23;;;;;;;2.83;1.33;;;12.40;84.80;;;;;;5008302;28;20029;-78
2020/12/18 03:35:05;;;;;;;2.22;1.40;;;12.40;84.80;;;;;;5008271;28;20520;-77
2020/12/18 03:37:33;;;;;;;2.25;1.20;;;12.40;84.80;;;;;;5008156;28;20063;-76
2020/12/18 03:40:02;;;;;;;1.92;1.27;;;12.50;85.00;;;;;;5005882;28;20038;-78
2020/12/18 03:42:35;;;;;;;2.22;1.35;;;12.50;85.00;;;;;;4991978;28;20037;-78
2020/12/18 03:45:01;;;;;;;2.63;1.30;;;12.50;84.90;;;;;;4988682;28;20030;-78
2020/12/18 03:47:45;;;;;;;2.35;1.45;;;12.50;84.90;;;;;;4987419;28;20458;-78
2020/12/18 03:50:20;;;;;;;2.13;1.35;;;12.50;84.90;;;;;;4988373;28;20030;-78
2020/12/18 03:52:49;;;;;;;0.93;0.93;;;12.50;84.90;;;;;;4988225;28;20516;-78
2020/12/18 03:55:15;;;;;;;2.20;1.13;;;12.50;84.90;;;;;;4999030;28;20378;-77
2020/12/18 03:58:16;;;;;;;1.60;1.10;;;12.50;84.90;;;;;;5002106;28;20096;-78
2020/12/18 04:00:52;;;;;;;2.88;1.33;;;12.50;84.90;;;;;;5008999;28;20037;-77
2020/12/18 04:03:18;;;;;;;1.73;1.20;;;12.50;84.90;;;;;;4991304;28;20438;-78
2020/12/18 04:05:45;;;;;;;1.67;1.30;;;12.50;84.90;;;;;;4990601;28;20034;-77
2020/12/18 04:08:13;;;;;;;2.72;1.50;;;12.50;84.90;;;;;;4991455;28;20029;-79
2020/12/18 04:10:57;;;;;;;3.92;1.60;;;12.50;84.90;;;;;;5007217;28;20117;-78
2020/12/18 04:13:40;;;;;;;3.47;1.48;;;12.50;84.90;;;;;;5006992;28;20029;-79
2020/12/18 04:16:07;;;;;;;1.30;0.90;;;12.50;84.80;;;;;;4991445;28;20049;-77
2020/12/18 04:18:33;;;;;;;1.25;1.00;;;12.50;84.80;;;;;;5007821;28;20063;-78
2020/12/18 04:21:00;;;;;;;1.33;1.00;;;12.50;84.80;;;;;;5007554;28;20168;-77
2020/12/18 04:23:36;;;;;;;4.85;1.50;;;12.60;85.00;;;;;;5009253;28;20049;-78
2020/12/18 04:26:26;;;;;;;3.92;1.40;;;12.60;85.00;;;;;;5007361;28;20494;-78
2020/12/18 04:28:53;;;;;;;2.22;1.58;;;12.60;85.00;;;;;;5007391;28;20022;-77
2020/12/18 04:31:19;;;;;;;1.83;1.20;;;12.60;85.00;;;;;;5007462;28;20072;-78
2020/12/18 04:33:46;;;;;;;2.47;1.23;;;12.60;84.90;;;;;;4990971;28;20142;-78
2020/12/18 04:36:16;;;;;;;3.00;1.20;;;12.60;85.00;;;;;;5007464;28;20196;-78
2020/12/18 04:38:42;;;;;;;1.25;1.15;;;12.60;85.00;;;;;;4985057;28;20117;-78
2020/12/18 04:41:18;;;;;;;2.05;1.00;;;12.60;85.00;;;;;;5004751;28;20069;-79
2020/12/18 04:44:01;;;;;;;1.38;0.98;;;12.60;84.90;;;;;;5019236;28;20049;-79
2020/12/18 04:46:41;;;;;;;0.90;0.90;;;12.60;84.90;;;;;;5007351;28;20109;-79
2020/12/18 04:49:09;;;;;;;4.95;1.10;;;12.60;84.90;;;;;;5008141;28;20049;-79
2020/12/18 04:51:42;;;;;;;1.13;0.98;;;12.60;84.90;;;;;;5023897;28;20038;-79
2020/12/18 04:54:21;;;;;;;1.13;0.93;;;12.60;84.90;;;;;;5007373;28;20479;-80
2020/12/18 04:56:58;;;;;;;1.35;1.08;;;12.60;84.90;;;;;;5007334;28;20067;-79
2020/12/18 04:59:27;;;;;;;1.55;1.10;;;12.60;84.90;;;;;;5024053;28;20651;-79
2020/12/18 05:02:00;;;;;;;1.77;1.03;;;12.60;84.90;;;;;;5007789;28;20485;-78
2020/12/18 05:04:34;;;;;;;1.70;1.10;;;12.60;84.90;;;;;;5007694;28;20064;-79
2020/12/18 05:07:29;;;;;;;2.35;1.20;;;12.60;84.90;;;;;;5007377;28;20090;-79
2020/12/18 05:09:56;;;;;;;1.75;1.10;;;12.60;84.90;;;;;;5007826;28;20302;-79
2020/12/18 05:12:42;;;;;;;1.35;1.08;;;12.60;84.90;;;;;;5021429;28;20080;-79
2020/12/18 05:15:10;;;;;;;1.98;1.10;;;12.60;84.90;;;;;;5007631;28;20053;-79
2020/12/18 05:18:05;;;;;;;1.05;0.98;;;12.60;84.90;;;;;;4988649;28;20045;-78
2020/12/18 05:20:31;;;;;;;2.30;1.38;;;12.60;84.90;;;;;;5011001;28;20281;-78
2020/12/18 05:23:20;;;;;;;1.50;1.20;;;12.60;84.90;;;;;;5004129;28;20034;-79
2020/12/18 05:26:10;;;;;;;1.17;0.80;;;12.60;84.90;;;;;;5024316;28;20125;-78
2020/12/18 05:28:47;;;;;;;1.42;0.90;;;12.60;84.90;;;;;;5010644;28;20033;-78
2020/12/18 05:31:18;;;;;;;2.53;0.90;;;12.60;84.90;;;;;;5011145;28;20426;-78
2020/12/18 05:34:05;;;;;;;1.48;0.90;;;12.60;84.90;;;;;;5012150;28;20077;-79
2020/12/18 05:36:54;;;;;;;0.85;0.80;;;12.60;84.90;;;;;;5011891;28;20080;-79
2020/12/18 05:39:40;;;;;;;2.72;1.20;;;12.60;84.90;;;;;;5011927;28;20433;-78
2020/12/18 05:42:07;;;;;;;3.45;1.00;;;12.60;84.90;;;;;;5027059;28;20477;-77
2020/12/18 05:44:38;;;;;;;2.75;1.48;;;12.60;84.90;;;;;;5010636;28;20061;-78
2020/12/18 05:47:30;;;;;;;1.45;1.02;;;12.60;84.80;;;;;;5003977;28;20088;-79
2020/12/18 05:49:56;;;;;;;1.42;0.90;;;12.60;84.80;;;;;;4989214;28;20225;-79
2020/12/18 05:52:25;;;;;;;1.73;1.10;;;12.60;84.80;;;;;;5003495;28;20042;-79
2020/12/18 05:55:02;;;;;;;2.83;1.13;;;12.60;84.80;;;;;;5003252;28;20034;-79
2020/12/18 05:57:39;;;;;;;2.10;0.90;;;12.70;85.00;;;;;;4977746;28;20037;-79
2020/12/18 06:00:12;;;;;;;2.17;1.25;;;12.60;84.80;;;;;;4991836;28;20653;-79
2020/12/18 06:03:09;;;;;;;1.85;1.13;;;12.70;85.00;;;;;;5006902;28;20030;-78
2020/12/18 06:05:46;;;;;;;1.23;0.90;;;12.70;85.00;;;;;;5004663;28;20030;-78
2020/12/18 06:08:26;;;;;;;1.10;1.00;;;12.70;85.00;;;;;;5012386;28;20129;-79
2020/12/18 06:10:58;;;;;;;1.60;1.10;;;12.60;84.80;;;;;;4990951;28;20386;-79
2020/12/18 06:13:47;;;;;;;1.13;0.98;;;12.70;85.00;;;;;;5007323;28;20069;-80
2020/12/18 06:16:41;;;;;;;2.00;1.20;;;12.70;85.00;;;;;;5000245;28;20107;-81
2020/12/18 06:19:18;;;;;;;1.70;1.10;;;12.70;84.90;;;;;;5006131;28;20508;-79
2020/12/18 06:21:52;;;;;;;1.45;1.00;;;12.70;84.90;;;;;;4990337;28;20034;-77
2020/12/18 06:24:24;;;;;;;1.20;0.95;;;12.70;84.90;;;;;;4990518;28;20041;-79
2020/12/18 06:27:07;;;;;;;1.27;0.80;;;12.70;84.90;;;;;;5006071;28;20034;-78
2020/12/18 06:29:47;;;;;;;4.50;1.00;;;12.70;84.90;;;;;;5005457;28;20029;-80
2020/12/18 06:32:32;;;;;;;2.42;1.20;;;12.70;84.90;;;;;;5007002;28;20033;-77
2020/12/18 06:35:30;;;;;;;1.20;1.00;;;12.70;84.90;;;;;;5004833;28;20414;-77
2020/12/18 06:38:16;;;;;;;1.00;0.93;;;12.70;85.00;;;;;;5006086;28;20034;-74
2020/12/18 06:40:54;;;;;;;1.60;0.90;;;12.70;84.90;;;;;;4991970;28;20076;-75
2020/12/18 06:43:37;;;;;;;1.85;0.88;;;12.70;84.90;;;;;;5005981;28;20052;-78
2020/12/18 06:46:23;;;;;;;1.15;0.95;;;12.70;84.90;;;;;;5005578;28;20088;-77
2020/12/18 06:49:15;;;;;;;1.45;1.10;;;12.70;84.90;;;;;;5003776;28;20145;-78
2020/12/18 06:51:59;;;;;;;1.42;0.98;;;12.70;84.90;;;;;;5007592;28;20026;-77
2020/12/18 06:54:56;;;;;;;0.80;0.73;;;12.70;84.90;;;;;;5001285;28;20072;-78
2020/12/18 06:57:23;;;;;;;0.95;0.95;;;12.70;84.90;;;;;;5011689;28;20224;-76
2020/12/18 06:59:49;;;;;;;1.23;0.90;;;12.70;84.90;;;;;;5022857;28;20474;-81
2020/12/18 07:02:34;;;;;;;1.17;0.80;;;12.70;84.90;;;;;;5007083;28;20249;-80
2020/12/18 07:05:01;;;;;;;0.80;0.80;;;12.70;84.90;;;;;;5005145;28;20417;-78
2020/12/18 07:07:27;;;;;;;0.80;0.80;;;12.70;84.90;;;;;;5005426;28;20063;-87
2020/12/18 07:09:53;;;;;;;2.40;1.00;;;12.70;84.90;;;;;;5005017;28;20030;-78
2020/12/18 07:12:20;;;;;;;1.73;1.08;;;12.70;84.90;;;;;;5005780;28;20044;-78
2020/12/18 07:14:49;;;;;;;2.00;1.10;;;12.70;84.90;;;;;;5020653;28;20427;-80
2020/12/18 07:17:16;;;;;;;1.92;0.90;;;12.70;84.90;;;;;;5005909;28;20128;-80
2020/12/18 07:19:43;;;;;;;0.90;0.80;;;12.70;84.90;;;;;;5007471;28;20038;-80
2020/12/18 07:22:20;;;;;;;0.93;0.85;;;12.70;84.90;;;;;;5005020;28;20061;-79
2020/12/18 07:24:46;;;;;;;1.52;1.23;;;12.70;84.90;;;;;;5005911;28;20068;-78
2020/12/18 07:27:12;;;;;;;1.45;1.00;;;12.70;84.90;;;;;;4989603;28;20038;-78
2020/12/18 07:29:38;;;;;;;1.40;1.00;;;12.70;84.90;;;;;;5005535;28;20053;-77
2020/12/18 07:32:04;;;;;;;0.90;0.90;;;12.70;84.90;;;;;;5005960;28;20837;-77
2020/12/18 07:34:30;;;;;;;1.98;0.90;;;12.70;84.90;;;;;;5004112;28;20029;-77
2020/12/18 07:36:56;;;;;;;1.50;0.90;;;12.70;84.90;;;;;;5003423;28;20048;-76
2020/12/18 07:39:22;;;;;;;1.15;0.80;;;12.70;84.90;;;;;;5004620;28;20037;-77
2020/12/18 07:41:48;;;;;;;1.08;0.95;;;12.70;84.90;;;;;;5005845;28;20050;-77
2020/12/18 07:44:15;;;;;;;1.65;0.98;;;12.70;84.90;;;;;;5003998;28;20034;-78
2020/12/18 07:46:42;;;;;;;1.15;1.05;;;12.70;84.90;;;;;;5005776;28;20113;-79
2020/12/18 07:49:12;;;;;;;2.63;1.05;;;12.70;84.80;;;;;;5003918;28;20508;-79
2020/12/18 07:51:38;;;;;;;1.60;0.98;;;12.80;85.00;;;;;;5003600;28;20041;-76
2020/12/18 07:54:05;;;;;;;1.90;1.10;;;12.80;85.00;;;;;;5005492;28;20165;-76
2020/12/18 07:56:31;;;;;;;0.90;0.90;;;12.70;84.80;;;;;;5004322;28;20048;-77
2020/12/18 07:59:02;;;;;;;0.75;0.73;;;12.80;85.00;;;;;;5005255;28;20033;-78
2020/12/18 08:01:32;;;;;;;1.40;0.98;;;12.80;85.00;;;;;;5004212;28;20172;-77
2020/12/18 08:04:09;;;;;;;1.30;0.85;;;12.80;85.00;;;;;;5004637;28;20030;-77
2020/12/18 08:06:39;;;;;;;2.72;1.05;;;12.80;85.00;;;;;;5005882;28;20045;-77
2020/12/18 08:09:06;;;;;;;0.80;0.80;;;12.80;85.00;;;;;;5004572;28;20120;-76
2020/12/18 08:11:37;;;;;;;1.30;1.20;;;12.80;84.90;;;;;;5005345;28;20584;-76
2020/12/18 08:14:05;;;;;;;1.40;1.10;;;12.80;85.00;;;;;;5005610;28;20026;-75
2020/12/18 08:16:33;;;;;;;1.33;0.90;;;12.80;84.90;;;;;;5017747;28;20038;-76
2020/12/18 08:19:05;;;;;;;1.15;0.90;;;12.80;84.90;;;;;;5004347;28;20419;-75
2020/12/18 08:21:36;;;;;;;0.98;0.80;;;12.80;84.90;;;;;;5002933;28;20034;-75
2020/12/18 08:24:20;;;;;;;0.73;0.73;;;12.80;84.90;;;;;;5003829;28;20362;-75
2020/12/18 08:26:55;;;;;;;1.17;1.08;;;12.80;85.00;;;;;;4987779;28;20038;-75
2020/12/18 08:29:23;;;;;;;1.05;0.80;;;12.80;84.90;;;;;;5003514;28;20095;-76
2020/12/18 08:31:55;;;;;;;7.40;1.10;;;12.90;85.10;;;;;;5002811;28;20030;-75
2020/12/18 08:34:27;;;;;;;4.20;1.08;;;12.80;84.90;;;;;;5003721;28;20030;-76
2020/12/18 08:36:54;;;;;;;2.83;1.05;;;12.80;84.90;;;;;;5002133;28;20108;-76
2020/12/18 08:39:20;;;;;;;1.15;1.05;;;12.80;84.90;;;;;;5019746;28;20116;-75
2020/12/18 08:41:53;;;;;;;1.98;1.20;;;12.90;85.10;;;;;;5004169;28;20128;-75
2020/12/18 08:44:28;;;;;;;0.85;0.80;;;12.90;85.10;;;;;;5005371;28;20092;-78
2020/12/18 08:46:56;;;;;;;1.50;1.25;;;12.90;85.10;;;;;;5005391;28;20030;-77
2020/12/18 08:49:28;;;;;;;1.48;1.05;;;12.90;85.10;;;;;;5020797;28;20038;-75
2020/12/18 08:52:03;;;;;;;1.23;1.00;;;12.90;85.00;;;;;;5007425;28;20044;-75
2020/12/18 08:54:38;;;;;;;1.27;0.98;;;12.90;85.00;;;;;;5008400;28;20441;-75
2020/12/18 08:57:24;;;;;;;1.10;0.80;;;12.90;85.10;;;;;;5009062;28;20161;-77
2020/12/18 09:00:12;;;;;;;4.53;1.30;;;12.90;85.00;;;;;;5009457;28;20076;-77
2020/12/18 09:02:54;;;;;;;3.15;1.30;;;12.90;85.10;;;;;;5008398;28;20034;-76
2020/12/18 09:05:23;;;;;;;3.38;1.05;;;12.90;85.10;;;;;;5005447;28;20026;-75
2020/12/18 09:08:02;;;;;;;4.60;1.40;;;12.90;85.10;;;;;;5008746;28;20026;-75
2020/12/18 09:10:41;;;;;;;2.20;1.13;;;12.90;85.10;;;;;;5008469;28;20058;-76
2020/12/18 09:13:16;;;;;;;2.05;1.10;;;12.90;85.10;;;;;;5008784;28;20033;-75
2020/12/18 09:16:10;;;;;;;0.95;0.80;;;12.90;85.10;;;;;;5008192;28;20038;-76
2020/12/18 09:18:38;;;;;;;2.13;1.23;;;12.90;85.10;;;;;;5007250;28;20502;-78
2020/12/18 09:21:17;;;;;;;1.15;0.82;;;12.90;85.10;;;;;;4991565;28;20034;-76
2020/12/18 09:23:46;;;;;;;1.33;1.17;;;12.90;85.10;;;;;;5008252;28;20486;-77
2020/12/18 09:26:22;;;;;;;1.77;1.27;;;12.90;85.10;;;;;;5007723;28;20042;-76
2020/12/18 09:28:47;;;;;;;2.70;1.15;;;12.90;85.20;;;;;;5009215;28;20049;-76
2020/12/18 09:31:13;;;;;;;2.03;1.20;;;13.00;85.40;;;;;;5008060;28;20034;-75
2020/12/18 09:33:40;;;;;;;2.75;1.13;;;13.00;85.40;;;;;;5008076;28;20137;-75
2020/12/18 09:36:06;;;;;;;1.63;1.15;;;13.00;85.40;;;;;;5009085;28;20038;-76
2020/12/18 09:38:34;;;;;;;2.72;1.40;;;13.00;85.90;;;;;;4991349;28;20093;-75
2020/12/18 09:41:03;;;;;;;1.42;1.20;;;13.10;85.60;;;;;;5024305;28;20065;-75
2020/12/18 09:43:29;;;;;;;1.17;0.95;;;13.10;85.50;;;;;;5009211;28;20022;-76
2020/12/18 09:45:56;;;;;;;1.65;1.27;;;13.10;85.50;;;;;;5007777;28;20056;-75
2020/12/18 09:48:22;;;;;;;1.15;1.00;;;13.10;85.50;;;;;;5007349;28;20140;-77
2020/12/18 09:50:50;;;;;;;0.93;0.90;;;13.20;85.60;;;;;;5007356;28;20120;-75
2020/12/18 09:53:17;;;;;;;1.83;1.00;;;13.20;85.60;;;;;;4991411;28;20048;-76
2020/12/18 09:55:43;;;;;;;2.78;1.00;;;13.20;85.60;;;;;;5007142;28;20030;-76
2020/12/18 09:58:09;;;;;;;2.15;1.00;;;13.30;85.80;;;;;;4990703;28;20496;-76
2020/12/18 10:00:35;;;;;;;2.75;1.40;;;13.30;85.70;;;;;;5007368;28;20112;-77
2020/12/18 10:03:03;;;;;;;2.25;1.10;;;13.30;85.70;;;;;;4989925;28;20029;-76
2020/12/18 10:05:29;;;;;;;2.08;1.00;;;13.40;85.80;;;;;;4990945;28;20021;-76
2020/12/18 10:07:55;;;;;;;3.50;1.38;;;13.50;85.90;;;;;;5008202;28;20052;-77
2020/12/18 10:10:21;;;;;;;1.20;1.10;;;13.50;85.80;;;;;;5008593;28;20033;-75
2020/12/18 10:12:48;;;;;;;2.35;1.25;;;13.60;85.90;;;;;;4990730;28;20100;-76
2020/12/18 10:15:14;;;;;;;2.88;1.10;;;13.70;86.00;;;;;;5008493;28;20044;-75
2020/12/18 10:17:40;;;;;;;1.58;1.20;;;13.70;85.90;;;;;;5008293;28;20068;-75
2020/12/18 10:20:06;;;;;;;1.58;1.10;;;13.80;86.00;;;;;;5008217;28;20102;-77
2020/12/18 10:22:32;;;;;;;1.20;0.90;;;13.90;86.20;;;;;;5023060;28;20042;-76
2020/12/18 10:24:58;;;;;;;1.10;0.80;;;13.90;86.10;;;;;;5006838;28;20143;-77
2020/12/18 10:27:24;;;;;;;1.33;1.23;;;14.00;86.20;;;;;;5006725;28;20125;-77
2020/12/18 10:29:52;;;;;;;3.50;1.42;;;14.00;86.10;;;;;;5008066;28;20029;-78
2020/12/18 10:32:19;;;;;;;1.40;1.10;;;14.00;86.00;;;;;;5008482;28;20045;-77
2020/12/18 10:34:45;;;;;;;1.95;1.40;;;14.10;86.10;;;;;;4990540;28;20033;-77
2020/12/18 10:37:11;;;;;;;1.48;1.30;;;14.20;86.30;;;;;;5006034;28;20485;-77
2020/12/18 10:39:36;;;;;;;1.42;1.00;;;14.20;86.30;;;;;;5006167;28;20030;-76
2020/12/18 10:42:05;;;;;;;2.92;1.27;;;14.30;86.40;;;;;;5023396;28;20034;-79
2020/12/18 10:44:31;;;;;;;1.83;1.10;;;14.30;86.30;;;;;;5006642;28;20040;-77
2020/12/18 10:46:57;;;;;;;0.80;0.80;;;14.30;86.30;;;;;;5007597;28;20057;-77
2020/12/18 10:49:23;;;;;;;3.00;1.48;;;14.30;86.30;;;;;;5007750;28;20310;-77
2020/12/18 10:51:49;;;;;;;3.70;1.55;;;14.40;86.50;;;;;;5007729;28;20092;-78
2020/12/18 10:54:15;;;;;;;1.48;1.10;;;14.40;86.40;;;;;;5007340;28;20141;-75
2020/12/18 10:56:41;;;;;;;2.40;1.13;;;14.40;86.40;;;;;;5006345;28;20120;-77
2020/12/18 10:59:07;;;;;;;3.10;1.17;;;14.40;86.30;;;;;;4989455;28;20084;-75
2020/12/18 11:01:33;;;;;;;3.58;1.20;;;14.40;86.30;;;;;;4973728;28;20465;-76
2020/12/18 11:03:59;;;;;;;2.92;1.40;;;14.50;86.40;;;;;;4989650;28;20038;-76
2020/12/18 11:06:25;;;;;;;2.47;1.50;;;14.50;86.50;;;;;;5006275;28;20045;-76
2020/12/18 11:08:51;;;;;;;2.67;1.38;;;14.50;86.60;;;;;;5007496;28;20408;-76
2020/12/18 11:11:17;;;;;;;2.53;1.63;;;14.40;86.40;;;;;;5007265;28;20109;-75
2020/12/18 11:13:43;;;;;;;1.40;1.30;;;14.40;86.50;;;;;;5006333;28;20137;-75
2020/12/18 11:16:11;;;;;;;2.63;1.38;;;14.40;86.50;;;;;;5007286;28;20037;-75
2020/12/18 11:18:37;;;;;;;2.65;1.45;;;14.40;86.50;;;;;;5005729;28;20033;-75
2020/12/18 11:21:04;;;;;;;4.15;1.38;;;14.40;86.50;;;;;;5005549;28;20065;-76
2020/12/18 11:23:32;;;;;;;1.73;1.40;;;14.40;86.60;;;;;;5006265;28;20500;-76
2020/12/18 11:25:58;;;;;;;2.75;1.58;;;14.40;86.70;;;;;;5006992;28;20030;-77
2020/12/18 11:28:24;;;;;;;1.40;1.13;;;14.40;86.70;;;;;;5007363;28;20397;-76
2020/12/18 11:30:50;;;;;;;1.70;1.60;;;14.40;86.60;;;;;;5005373;28;20123;-76
2020/12/18 11:33:16;;;;;;;2.47;1.40;;;14.40;86.60;;;;;;5006246;28;20035;-76
2020/12/18 11:35:43;;;;;;;2.03;1.42;;;14.40;86.70;;;;;;5005886;28;20048;-78
2020/12/18 11:38:09;;;;;;;3.35;3.05;;;14.40;86.50;;;;;;5006899;28;20033;-76
2020/12/18 11:40:35;;;;;;;3.25;3.00;;;14.40;86.60;;;;;;5005718;28;20089;-77
2020/12/18 11:43:01;;;;;;;3.92;3.05;;;14.40;86.70;;;;;;5005530;28;20048;-78
2020/12/18 11:45:27;;;;;;;4.43;2.60;;;14.50;87.00;;;;;;5006523;28;20030;-78
2020/12/18 11:47:53;;;;;;;2.78;2.50;;;14.50;87.00;;;;;;5005474;28;20058;-78
2020/12/18 11:50:19;;;;;;;3.03;2.40;;;14.50;87.00;;;;;;5007129;28;20029;-77
2020/12/18 11:52:45;;;;;;;4.10;2.35;;;14.50;87.00;;;;;;5006963;28;20064;-78
2020/12/18 11:55:11;;;;;;;2.90;2.40;;;14.50;87.00;;;;;;5007609;28;20129;-77
2020/12/18 11:57:37;;;;;;;2.97;2.45;;;14.50;87.00;;;;;;5005590;28;20401;-77
2020/12/18 12:00:05;;;;;;;3.28;2.85;;;14.50;87.00;;;;;;5005325;28;20080;-77
2020/12/18 12:02:38;;;;;;;3.10;2.33;;;14.50;87.00;;;;;;5006692;28;20369;-77
2020/12/18 12:05:05;;;;;;;3.53;3.22;;;14.50;87.00;;;;;;5004530;28;20033;-77
2020/12/18 12:07:31;;;;;;;3.47;3.20;;;14.50;87.00;;;;;;5006599;28;20041;-77
2020/12/18 12:09:57;;;;;;;4.55;3.92;;;14.50;86.90;;;;;;4988679;28;20236;-77
2020/12/18 12:12:24;;;;;;;5.40;3.58;;;14.50;86.90;;;;;;5007002;28;20059;-77
2020/12/18 12:14:50;;;;;;;4.32;3.17;;;14.50;86.90;;;;;;5005131;28;20037;-77
2020/12/18 12:17:16;;;;;;;3.35;3.03;;;14.50;86.90;;;;;;5005624;28;20465;-77
2020/12/18 12:19:42;;;;;;;3.30;2.95;;;14.50;86.90;;;;;;5004220;28;20051;-76
2020/12/18 12:22:09;;;;;;;4.15;3.17;;;14.50;86.90;;;;;;5004968;28;20038;-76
2020/12/18 12:24:36;;;;;;;4.65;2.67;;;14.50;86.80;;;;;;5004548;28;20034;-75
2020/12/18 12:27:02;;;;;;;4.63;2.78;;;14.60;87.00;;;;;;5004972;28;20420;-76
2020/12/18 12:29:28;;;;;;;4.38;3.08;;;14.60;87.00;;;;;;4988158;28;20029;-77
2020/12/18 12:31:54;;;;;;;3.67;2.92;;;14.60;87.00;;;;;;5006184;28;20026;-77
2020/12/18 12:34:19;;;;;;;4.22;2.58;;;14.60;87.00;;;;;;5005689;28;20030;-77
2020/12/18 12:36:45;;;;;;;3.28;2.30;;;14.60;86.90;;;;;;5006330;28;20073;-81
2020/12/18 12:39:11;;;;;;;4.13;2.10;;;14.70;87.10;;;;;;5006315;28;20110;-76
2020/12/18 12:41:37;;;;;;;4.00;2.88;;;14.70;87.00;;;;;;5004797;28;20045;-77
2020/12/18 12:44:03;;;;;;;3.45;2.40;;;14.70;87.00;;;;;;5005943;28;20485;-76
2020/12/18 12:46:36;;;;;;;3.70;2.55;;;14.70;87.00;;;;;;5004797;28;20025;-76
2020/12/18 12:49:02;;;;;;;2.20;1.98;;;14.70;87.00;;;;;;4988223;28;20298;-75
2020/12/18 12:51:28;;;;;;;2.67;2.00;;;14.70;86.90;;;;;;5004957;28;20116;-75
2020/12/18 12:53:54;;;;;;;2.67;2.15;;;14.70;86.90;;;;;;5004548;28;20044;-76
2020/12/18 12:56:20;;;;;;;2.85;1.80;;;14.70;86.90;;;;;;5004144;28;20045;-76
2020/12/18 12:58:45;;;;;;;4.47;2.40;;;14.70;86.90;;;;;;5004255;28;20022;-76
2020/12/18 13:01:11;;;;;;;3.00;2.10;;;14.70;86.90;;;;;;5006154;28;20125;-75
2020/12/18 13:03:37;;;;;;;2.83;2.05;;;14.70;86.90;;;;;;5005790;28;20041;-75
2020/12/18 13:06:03;;;;;;;4.60;2.30;;;14.70;86.90;;;;;;4988213;28;20042;-74
2020/12/18 13:08:29;;;;;;;2.10;1.85;;;14.70;86.90;;;;;;5004438;28;20036;-74